createdAt,value
2019-06-10T00:02:07.872Z,62.40
2019-06-10T00:04:35.521Z,62.50
2019-06-10T00:07:04.165Z,62.70
2019-06-10T00:09:32.742Z,62.20
2019-06-10T00:12:02.577Z,62.60
2019-06-10T00:14:31.494Z,62.40
2019-06-10T00:17:01.619Z,62.20
2019-06-10T00:19:31.564Z,62.10
2019-06-10T00:21:59.911Z,62.10
2019-06-10T00:24:28.293Z,62.60
2019-06-10T00:26:56.078Z,62.40
2019-06-10T00:29:26.134Z,62.30
2019-06-10T00:31:58.503Z,62.40
2019-06-10T00:34:26.378Z,61.90
2019-06-10T00:36:54.031Z,62.30
2019-06-10T00:39:22.291Z,62.00
2019-06-10T00:41:52.183Z,62.30
2019-06-10T00:44:20.590Z,62.20
2019-06-10T00:46:48.402Z,62.40
2019-06-10T00:49:17.049Z,62.90
2019-06-10T00:51:44.810Z,62.60
2019-06-10T00:54:15.393Z,63.70
2019-06-10T00:56:43.024Z,63.10
2019-06-10T00:59:13.384Z,63.30
2019-06-10T01:01:41.601Z,62.90
2019-06-10T01:04:14.386Z,63.00
2019-06-10T01:06:38.969Z,62.90
2019-06-10T01:09:08.779Z,63.20
2019-06-10T01:11:37.383Z,63.40
2019-06-10T01:14:05.217Z,63.50
2019-06-10T01:16:32.973Z,63.60
2019-06-10T01:19:01.477Z,63.70
2019-06-10T01:21:31.179Z,63.70
2019-06-10T01:24:01.061Z,64.20
2019-06-10T01:26:30.829Z,64.20
2019-06-10T01:28:58.169Z,63.90
2019-06-10T01:31:25.698Z,63.90
2019-06-10T01:33:53.351Z,63.90
2019-06-10T01:36:21.212Z,63.80
2019-06-10T01:38:51.096Z,64.00
2019-06-10T01:41:18.576Z,64.10
2019-06-10T01:43:47.228Z,63.40
2019-06-10T01:46:16.260Z,63.50
2019-06-10T01:48:48.108Z,62.90
2019-06-10T01:51:17.681Z,62.80
2019-06-10T01:53:46.537Z,62.70
2019-06-10T01:56:15.485Z,62.70
2019-06-10T01:58:43.749Z,63.20
2019-06-10T02:01:20.091Z,63.10
2019-06-10T02:03:48.722Z,63.50
2019-06-10T02:06:19.901Z,62.90
2019-06-10T02:08:45.884Z,62.80
2019-06-10T02:11:15.541Z,63.30
2019-06-10T02:13:43.206Z,63.40
2019-06-10T02:16:14.112Z,63.30
2019-06-10T02:18:42.241Z,63.00
2019-06-10T02:21:14.297Z,63.10
2019-06-10T02:23:41.208Z,63.00
2019-06-10T02:26:11.299Z,63.30
2019-06-10T02:28:40.579Z,63.80
2019-06-10T02:31:08.409Z,63.90
2019-06-10T02:33:36.800Z,63.40
2019-06-10T02:36:05.019Z,63.20
2019-06-10T02:38:38.667Z,63.00
2019-06-10T02:41:04.450Z,62.70
2019-06-10T02:43:37.556Z,62.30
2019-06-10T02:46:04.754Z,63.40
2019-06-10T02:48:34.938Z,63.20
2019-06-10T02:51:04.773Z,63.40
2019-06-10T02:53:35.994Z,63.50
2019-06-10T02:56:04.348Z,63.50
2019-06-10T02:58:38.355Z,63.40
2019-06-10T03:01:04.278Z,63.70
2019-06-10T03:03:39.243Z,63.60
2019-06-10T03:06:06.941Z,63.70
2019-06-10T03:08:35.901Z,63.50
2019-06-10T03:11:03.732Z,63.40
2019-06-10T03:13:33.009Z,63.30
2019-06-10T03:16:22.179Z,63.50
2019-06-10T03:18:49.436Z,63.80
2019-06-10T03:21:17.978Z,63.90
2019-06-10T03:23:45.722Z,63.60
2019-06-10T03:26:13.341Z,63.70
2019-06-10T03:28:42.721Z,63.50
2019-06-10T03:31:10.530Z,63.20
2019-06-10T03:33:42.146Z,63.00
2019-06-10T03:36:07.685Z,63.60
2019-06-10T03:38:37.079Z,63.60
2019-06-10T03:41:04.872Z,63.50
2019-06-10T03:43:33.134Z,63.70
2019-06-10T03:46:03.005Z,63.80
2019-06-10T03:48:32.565Z,63.80
2019-06-10T03:51:03.275Z,63.40
2019-06-10T03:53:33.376Z,63.30
2019-06-10T03:56:02.266Z,64.00
2019-06-10T03:58:32.479Z,63.90
2019-06-10T04:00:59.698Z,63.80
2019-06-10T04:03:28.125Z,64.00
2019-06-10T04:05:56.940Z,63.80
2019-06-10T04:08:25.399Z,63.90
2019-06-10T04:10:54.197Z,63.50
2019-06-10T04:13:23.978Z,64.00
2019-06-10T04:15:53.328Z,63.50
2019-06-10T04:18:22.527Z,63.90
2019-06-10T04:20:52.759Z,63.70
2019-06-10T04:23:22.713Z,64.10
2019-06-10T04:25:49.767Z,64.40
2019-06-10T04:28:17.795Z,64.50
2019-06-10T04:30:45.513Z,64.50
2019-06-10T04:33:13.149Z,65.30
2019-06-10T04:35:42.759Z,65.40
2019-06-10T04:38:13.087Z,65.50
2019-06-10T04:40:42.960Z,65.50
2019-06-10T04:43:12.412Z,65.60
2019-06-10T04:45:42.842Z,65.60
2019-06-10T04:48:12.289Z,65.50
2019-06-10T04:50:45.494Z,65.20
2019-06-10T04:53:09.368Z,65.20
2019-06-10T04:55:37.023Z,65.10
2019-06-10T04:58:04.650Z,64.40
2019-06-10T05:00:33.096Z,64.60
2019-06-10T05:03:02.862Z,64.60
2019-06-10T05:05:32.716Z,64.10
2019-06-10T05:08:02.519Z,63.90
2019-06-10T05:10:29.974Z,64.30
2019-06-10T05:12:57.789Z,64.10
2019-06-10T05:15:28.404Z,64.20
2019-06-10T05:17:55.112Z,64.10
2019-06-10T05:20:39.963Z,63.70
2019-06-10T05:22:59.402Z,63.90
2019-06-10T05:25:28.396Z,64.80
2019-06-10T05:27:56.316Z,64.10
2019-06-10T05:30:26.283Z,64.10
2019-06-10T05:33:03.376Z,63.70
2019-06-10T05:35:35.321Z,64.10
2019-06-10T05:38:03.217Z,63.90
2019-06-10T05:40:33.746Z,63.90
2019-06-10T05:43:02.452Z,63.80
2019-06-10T05:45:30.557Z,64.90
2019-06-10T05:47:58.346Z,65.30
2019-06-10T05:50:26.791Z,65.10
2019-06-10T05:52:54.599Z,65.10
2019-06-10T05:55:22.843Z,65.70
2019-06-10T05:57:53.263Z,65.80
2019-06-10T06:00:22.957Z,65.70
2019-06-10T06:02:52.253Z,65.10
2019-06-10T06:05:22.107Z,65.20
2019-06-10T06:08:02.348Z,65.70
2019-06-10T06:10:19.230Z,65.90
2019-06-10T06:12:46.892Z,65.60
2019-06-10T06:15:14.721Z,66.40
2019-06-10T06:17:43.184Z,65.80
2019-06-10T06:20:13.345Z,65.80
2019-06-10T06:22:42.680Z,66.50
2019-06-10T06:25:15.193Z,66.00
2019-06-10T06:27:42.163Z,64.80
2019-06-10T06:30:13.775Z,65.20
2019-06-10T06:32:39.840Z,65.70
2019-06-10T06:35:07.473Z,65.70
2019-06-10T06:37:37.683Z,65.70
2019-06-10T06:40:05.341Z,65.70
2019-06-10T06:42:35.044Z,65.00
2019-06-10T06:45:03.131Z,65.60
2019-06-10T06:47:34.054Z,65.60
2019-06-10T06:50:02.561Z,65.50
2019-06-10T06:52:56.705Z,65.60
2019-06-10T06:54:59.633Z,65.40
2019-06-10T06:57:27.282Z,65.10
2019-06-10T06:59:54.922Z,65.80
2019-06-10T07:02:23.254Z,65.10
2019-06-10T07:04:52.611Z,64.70
2019-06-10T07:07:22.249Z,64.70
2019-06-10T07:09:52.654Z,64.60
2019-06-10T07:12:23.414Z,64.90
2019-06-10T07:14:52.591Z,65.80
2019-06-10T07:17:22.610Z,65.80
2019-06-10T07:19:49.900Z,65.80
2019-06-10T07:22:19.429Z,65.20
2019-06-10T07:24:47.705Z,65.10
2019-06-10T07:27:15.543Z,65.80
2019-06-10T07:29:46.937Z,65.80
2019-06-10T07:32:12.690Z,65.80
2019-06-10T07:34:41.676Z,65.80
2019-06-10T07:37:10.022Z,65.80
2019-06-10T07:39:39.614Z,65.80
2019-06-10T07:42:07.411Z,65.80
2019-06-10T07:44:36.325Z,64.80
2019-06-10T07:47:09.144Z,64.70
2019-06-10T07:49:37.223Z,65.10
2019-06-10T07:52:15.882Z,64.50
2019-06-10T07:54:35.930Z,64.40
2019-06-10T07:57:04.110Z,65.00
2019-06-10T07:59:32.588Z,65.60
2019-06-10T08:02:03.089Z,66.10
2019-06-10T08:04:33.169Z,65.10
2019-06-10T08:07:03.181Z,65.10
2019-06-10T08:09:30.346Z,65.50
2019-06-10T08:11:58.100Z,64.60
2019-06-10T08:14:25.804Z,64.40
2019-06-10T08:16:53.532Z,64.60
2019-06-10T08:19:33.332Z,64.40
2019-06-10T08:21:53.690Z,65.20
2019-06-10T08:24:22.135Z,65.20
2019-06-10T08:26:50.091Z,65.10
2019-06-10T08:29:17.759Z,65.00
2019-06-10T08:31:48.463Z,65.10
2019-06-10T08:34:15.082Z,66.30
2019-06-10T08:36:47.120Z,65.80
2019-06-10T08:39:15.759Z,65.40
2019-06-10T08:41:44.073Z,65.60
2019-06-10T08:44:12.687Z,65.80
2019-06-10T08:46:41.025Z,64.30
2019-06-10T08:49:12.494Z,65.80
2019-06-10T08:51:39.821Z,64.20
2019-06-10T08:54:07.607Z,64.20
2019-06-10T08:56:35.299Z,62.70
2019-06-10T08:59:03.994Z,63.40
2019-06-10T09:01:33.483Z,63.10
2019-06-10T09:04:03.088Z,62.30
2019-06-10T09:06:32.950Z,63.70
2019-06-10T09:09:02.688Z,63.60
2019-06-10T09:11:32.857Z,62.80
2019-06-10T09:14:02.591Z,61.40
2019-06-10T09:16:32.425Z,60.70
2019-06-10T09:19:02.107Z,61.10
2019-06-10T09:21:29.720Z,60.90
2019-06-10T09:24:00.055Z,61.90
2019-06-10T09:26:27.272Z,60.50
2019-06-10T09:28:56.615Z,60.90
2019-06-10T09:31:24.626Z,62.00
2019-06-10T09:33:56.724Z,61.30
2019-06-10T09:36:23.522Z,60.50
2019-06-10T09:38:55.069Z,62.80
2019-06-10T09:41:30.911Z,58.80
2019-06-10T09:43:56.504Z,60.50
2019-06-10T09:46:23.266Z,59.10
2019-06-10T09:48:55.724Z,60.80
2019-06-10T09:51:23.122Z,58.80
2019-06-10T09:54:02.438Z,59.40
2019-06-10T09:56:22.837Z,57.90
2019-06-10T09:58:52.915Z,57.20
2019-06-10T10:01:19.629Z,57.80
2019-06-10T10:03:51.909Z,56.90
2019-06-10T10:06:16.881Z,57.30
2019-06-10T10:08:47.390Z,59.30
2019-06-10T10:11:14.209Z,58.20
2019-06-10T10:13:44.974Z,58.20
2019-06-10T10:16:13.126Z,57.10
2019-06-10T10:18:46.958Z,57.20
2019-06-10T10:21:13.061Z,57.30
2019-06-10T10:23:52.478Z,57.40
2019-06-10T10:26:13.139Z,56.20
2019-06-10T10:28:42.802Z,57.10
2019-06-10T10:31:13.143Z,55.80
2019-06-10T10:33:40.393Z,56.70
2019-06-10T10:36:08.112Z,56.70
2019-06-10T10:38:35.889Z,56.90
2019-06-10T10:41:04.985Z,56.90
2019-06-10T10:43:37.192Z,56.20
2019-06-10T10:46:05.505Z,56.80
2019-06-10T10:48:33.601Z,56.60
2019-06-10T10:51:03.371Z,56.90
2019-06-10T10:53:32.841Z,58.00
2019-06-10T10:56:02.314Z,55.60
2019-06-10T10:58:32.263Z,55.10
2019-06-10T11:01:03.062Z,53.40
2019-06-10T11:03:29.945Z,54.80
2019-06-10T11:06:00.943Z,50.60
2019-06-10T11:08:27.308Z,52.80
2019-06-10T11:11:00.827Z,50.60
2019-06-10T11:13:27.929Z,51.90
2019-06-10T11:15:57.121Z,51.00
2019-06-10T11:18:25.390Z,51.90
2019-06-10T11:20:54.065Z,52.40
2019-06-10T11:23:22.857Z,52.40
2019-06-10T11:25:55.251Z,52.60
2019-06-10T11:28:22.840Z,53.80
2019-06-10T11:30:54.414Z,54.00
2019-06-10T11:33:22.754Z,55.90
2019-06-10T11:35:51.475Z,55.30
2019-06-10T11:38:19.551Z,55.30
2019-06-10T11:40:47.247Z,55.30
2019-06-10T11:43:14.937Z,55.00
2019-06-10T11:45:48.268Z,54.50
2019-06-10T11:48:13.008Z,54.60
2019-06-10T11:50:42.816Z,53.00
2019-06-10T11:53:12.795Z,54.40
2019-06-10T11:55:42.250Z,54.40
2019-06-10T11:58:09.727Z,51.50
2019-06-10T12:00:37.412Z,51.50
2019-06-10T12:03:05.273Z,50.60
2019-06-10T12:05:33.100Z,50.00
2019-06-10T12:08:02.739Z,50.40
2019-06-10T12:10:33.146Z,52.40
2019-06-10T12:13:07.105Z,50.20
2019-06-10T12:16:09.685Z,52.10
2019-06-10T12:18:08.603Z,50.80
2019-06-10T12:20:37.429Z,51.30
2019-06-10T12:23:07.199Z,51.20
2019-06-10T12:25:39.654Z,51.10
2019-06-10T12:28:08.425Z,51.70
2019-06-10T12:30:38.066Z,51.70
2019-06-10T12:33:07.729Z,50.20
2019-06-10T12:35:37.329Z,50.00
2019-06-10T12:38:06.975Z,50.50
2019-06-10T12:40:56.871Z,50.00
2019-06-10T12:43:43.321Z,51.50
2019-06-10T12:46:29.337Z,51.80
2019-06-10T12:49:18.482Z,50.90
2019-06-10T12:51:47.145Z,51.30
2019-06-10T12:54:16.744Z,52.20
2019-06-10T12:56:46.426Z,51.90
2019-06-10T12:59:14.305Z,51.70
2019-06-10T13:01:44.766Z,51.70
2019-06-10T13:04:13.935Z,51.60
2019-06-10T13:06:44.840Z,53.80
2019-06-10T13:09:13.058Z,55.50
2019-06-10T13:11:43.180Z,56.20
2019-06-10T13:14:12.835Z,56.40
2019-06-10T13:16:41.120Z,58.00
2019-06-10T13:19:09.676Z,59.50
2019-06-10T13:21:37.325Z,60.00
2019-06-10T13:24:06.032Z,60.50
2019-06-10T13:26:36.125Z,61.10
2019-06-10T13:29:06.979Z,60.20
2019-06-10T13:31:33.957Z,60.70
2019-06-10T13:34:06.567Z,60.10
2019-06-10T13:36:33.063Z,60.20
2019-06-10T13:39:03.978Z,59.00
2019-06-10T13:41:33.378Z,56.60
2019-06-10T13:44:02.108Z,58.40
2019-06-10T13:46:30.017Z,57.60
2019-06-10T13:48:57.794Z,58.80
2019-06-10T13:51:25.699Z,58.50
2019-06-10T13:53:53.858Z,56.70
2019-06-10T13:56:39.751Z,56.00
2019-06-10T13:58:52.288Z,56.10
2019-06-10T14:01:22.009Z,58.20
2019-06-10T14:03:49.785Z,58.90
2019-06-10T14:06:36.869Z,57.00
2019-06-10T14:08:47.065Z,56.80
2019-06-10T14:11:14.761Z,58.30
2019-06-10T14:13:43.300Z,58.60
2019-06-10T14:16:14.018Z,59.10
2019-06-10T14:18:42.407Z,58.90
2019-06-10T14:21:17.311Z,58.90
2019-06-10T14:23:42.214Z,59.70
2019-06-10T14:26:10.043Z,61.20
2019-06-10T14:28:41.196Z,61.80
2019-06-10T14:31:30.222Z,61.80
2019-06-10T14:33:38.264Z,62.10
2019-06-10T14:36:07.560Z,61.70
2019-06-10T14:38:35.622Z,61.70
2019-06-10T14:41:04.916Z,62.40
2019-06-10T14:43:33.423Z,61.10
2019-06-10T14:46:01.201Z,60.20
2019-06-10T14:48:29.010Z,59.90
2019-06-10T14:50:56.681Z,59.20
2019-06-10T14:53:24.389Z,59.20
2019-06-10T14:55:53.380Z,58.20
2019-06-10T14:58:23.023Z,58.60
2019-06-10T15:00:54.223Z,58.10
2019-06-10T15:03:20.616Z,57.40
2019-06-10T15:05:48.346Z,57.40
2019-06-10T15:08:17.304Z,57.40
2019-06-10T15:10:45.145Z,57.20
2019-06-10T15:13:13.857Z,57.50
2019-06-10T15:15:42.444Z,57.40
2019-06-10T15:18:12.197Z,56.80
2019-06-10T15:20:42.628Z,57.30
2019-06-10T15:23:11.506Z,57.00
2019-06-10T15:25:50.266Z,57.50
2019-06-10T15:28:09.968Z,57.50
2019-06-10T15:30:38.417Z,58.00
2019-06-10T15:33:06.093Z,57.30
2019-06-10T15:35:33.790Z,58.60
2019-06-10T15:38:04.175Z,58.70
2019-06-10T15:40:32.490Z,57.10
2019-06-10T15:43:00.492Z,57.20
2019-06-10T15:45:29.225Z,59.30
2019-06-10T15:47:56.894Z,59.70
2019-06-10T15:50:27.528Z,60.00
2019-06-10T15:52:54.386Z,60.00
2019-06-10T15:55:48.385Z,58.80
2019-06-10T15:57:54.162Z,57.90
2019-06-10T16:00:28.105Z,59.20
2019-06-10T16:02:51.240Z,60.30
2019-06-10T16:05:19.389Z,59.10
2019-06-10T16:07:48.389Z,59.20
2019-06-10T16:10:19.626Z,59.30
2019-06-10T16:12:45.629Z,59.40
2019-06-10T16:15:16.138Z,59.10
2019-06-10T16:17:43.345Z,59.40
2019-06-10T16:20:13.035Z,60.40
2019-06-10T16:22:42.751Z,60.30
2019-06-10T16:25:12.536Z,60.80
2019-06-10T16:27:47.089Z,60.10
2019-06-10T16:30:09.674Z,62.10
2019-06-10T16:32:37.373Z,61.80
2019-06-10T16:35:05.369Z,61.80
2019-06-10T16:37:33.033Z,61.90
2019-06-10T16:40:03.168Z,62.80
2019-06-10T16:42:32.170Z,62.00
2019-06-10T16:45:02.536Z,62.60
2019-06-10T16:47:32.675Z,62.10
2019-06-10T16:50:03.039Z,62.00
2019-06-10T16:52:30.423Z,61.50
2019-06-10T16:54:58.248Z,61.50
2019-06-10T16:57:27.290Z,61.40
2019-06-10T16:59:55.272Z,62.20
2019-06-10T17:02:25.077Z,62.00
2019-06-10T17:04:52.733Z,61.60
2019-06-10T17:07:20.584Z,62.20
2019-06-10T17:09:48.388Z,61.30
2019-06-10T17:12:16.037Z,60.80
2019-06-10T17:14:43.721Z,62.20
2019-06-10T17:17:12.694Z,62.30
2019-06-10T17:19:40.522Z,62.30
2019-06-10T17:22:08.260Z,62.90
2019-06-10T17:24:35.993Z,62.30
2019-06-10T17:27:03.952Z,61.80
2019-06-10T17:29:33.429Z,61.30
2019-06-10T17:32:02.833Z,61.80
2019-06-10T17:34:31.403Z,61.90
2019-06-10T17:37:00.342Z,62.20
2019-06-10T17:39:28.613Z,62.80
2019-06-10T17:41:57.632Z,62.60
2019-06-10T17:44:27.803Z,62.70
2019-06-10T17:46:54.896Z,62.50
2019-06-10T17:49:25.362Z,63.00
2019-06-10T17:51:52.637Z,62.10
2019-06-10T17:54:22.515Z,62.10
2019-06-10T17:56:50.016Z,62.60
2019-06-10T17:59:17.774Z,61.90
2019-06-10T18:01:45.453Z,62.00
2019-06-10T18:04:13.171Z,62.00
2019-06-10T18:06:42.452Z,62.00
2019-06-10T18:09:12.293Z,63.10
2019-06-10T18:11:40.020Z,62.50
2019-06-10T18:14:07.681Z,62.70
2019-06-10T18:16:36.668Z,62.70
2019-06-10T18:19:04.631Z,62.90
2019-06-10T18:21:33.506Z,62.60
2019-06-10T18:24:08.097Z,63.10
2019-06-10T18:26:35.926Z,63.20
2019-06-10T18:29:08.146Z,63.60
2019-06-10T18:31:34.008Z,63.50
2019-06-10T18:34:02.467Z,63.90
2019-06-10T18:36:32.665Z,64.90
2019-06-10T18:39:00.089Z,64.40
2019-06-10T18:41:27.948Z,64.90
2019-06-10T18:43:55.763Z,64.20
2019-06-10T18:46:23.446Z,64.20
2019-06-10T18:48:53.491Z,64.20
2019-06-10T18:51:22.596Z,63.80
2019-06-10T18:53:50.464Z,63.70
2019-06-10T18:56:18.181Z,64.30
2019-06-10T18:58:46.867Z,64.40
2019-06-10T19:01:14.649Z,64.50
2019-06-10T19:03:43.064Z,64.80
2019-06-10T19:06:12.552Z,65.30
2019-06-10T19:08:43.380Z,64.90
2019-06-10T19:11:10.124Z,65.50
2019-06-10T19:13:39.174Z,65.10
2019-06-10T19:16:07.449Z,65.00
2019-06-10T19:18:36.073Z,65.30
2019-06-10T19:21:06.256Z,65.30
2019-06-10T19:23:35.039Z,65.60
2019-06-10T19:26:03.198Z,65.00
2019-06-10T19:28:33.406Z,65.10
2019-06-10T19:31:02.391Z,65.30
2019-06-10T19:33:34.078Z,65.20
2019-06-10T19:36:02.262Z,65.10
2019-06-10T19:38:32.423Z,65.20
2019-06-10T19:40:59.816Z,65.00
2019-06-10T19:43:27.602Z,64.70
2019-06-10T19:45:55.282Z,65.30
2019-06-10T19:48:23.242Z,64.60
2019-06-10T19:50:53.780Z,64.40
2019-06-10T19:53:22.199Z,64.00
2019-06-10T19:55:50.008Z,64.00
2019-06-10T19:58:17.759Z,63.80
2019-06-10T20:00:50.876Z,63.50
2019-06-10T20:03:14.990Z,63.40
2019-06-10T20:05:45.271Z,63.80
2019-06-10T20:08:47.325Z,64.00
2019-06-10T20:11:15.027Z,63.90
2019-06-10T20:13:43.647Z,63.90
2019-06-10T20:16:12.266Z,64.30
2019-06-10T20:18:40.504Z,64.20
2019-06-10T20:21:09.581Z,64.40
2019-06-10T20:23:37.410Z,64.60
2019-06-10T20:26:06.052Z,64.40
2019-06-10T20:28:33.913Z,64.90
2019-06-10T20:31:01.756Z,64.40
2019-06-10T20:33:36.172Z,64.50
2019-06-10T20:36:06.311Z,64.50
2019-06-10T20:38:32.524Z,64.50
2019-06-10T20:41:02.419Z,64.60
2019-06-10T20:43:29.981Z,64.80
2019-06-10T20:45:58.329Z,64.80
2019-06-10T20:48:27.389Z,65.10
2019-06-10T20:50:55.075Z,64.90
2019-06-10T20:53:22.761Z,65.00
2019-06-10T20:55:54.987Z,65.20
2019-06-10T20:58:22.159Z,65.30
2019-06-10T21:00:53.904Z,65.30
2019-06-10T21:03:19.109Z,65.20
2019-06-10T21:05:50.018Z,65.10
2019-06-10T21:08:17.882Z,64.80
2019-06-10T21:10:48.028Z,64.00
2019-06-10T21:13:15.069Z,63.60
2019-06-10T21:15:45.665Z,64.30
2019-06-10T21:18:13.162Z,64.50
2019-06-10T21:20:44.455Z,64.90
2019-06-10T21:23:15.394Z,65.50
2019-06-10T21:25:41.221Z,65.60
2019-06-10T21:28:09.785Z,65.20
2019-06-10T21:30:41.899Z,65.30
2019-06-10T21:33:07.025Z,65.50
2019-06-10T21:35:34.670Z,65.50
2019-06-10T21:38:03.059Z,65.50
2019-06-10T21:40:32.834Z,65.60
2019-06-10T21:43:02.569Z,65.60
2019-06-10T21:45:32.301Z,65.50
2019-06-10T21:47:59.365Z,65.60
2019-06-10T21:50:27.078Z,65.50
2019-06-10T21:52:54.846Z,65.60
2019-06-10T21:55:22.604Z,65.50
2019-06-10T21:57:51.573Z,65.50
2019-06-10T22:00:25.876Z,65.50
2019-06-10T22:02:58.428Z,65.50
2019-06-10T22:05:24.997Z,65.50
2019-06-10T22:07:56.012Z,65.60
2019-06-10T22:10:22.992Z,65.50
2019-06-10T22:12:52.732Z,65.20
2019-06-10T22:15:22.463Z,64.90
2019-06-10T22:17:50.493Z,65.50
2019-06-10T22:20:22.718Z,65.20
2019-06-10T22:22:53.212Z,65.20
2019-06-10T22:25:22.251Z,65.30
2019-06-10T22:27:50.055Z,65.20
2019-06-10T22:30:17.988Z,65.20
2019-06-10T22:32:45.717Z,65.20
2019-06-10T22:35:13.369Z,65.20
2019-06-10T22:37:41.021Z,64.80
2019-06-10T22:40:08.868Z,65.10
2019-06-10T22:42:36.495Z,65.10
2019-06-10T22:45:04.609Z,65.10
2019-06-10T22:47:32.437Z,65.40
2019-06-10T22:50:04.805Z,65.50
2019-06-10T22:52:32.021Z,66.10
2019-06-10T22:55:01.061Z,65.80
2019-06-10T22:57:28.884Z,66.40
2019-06-10T22:59:57.780Z,66.10
2019-06-10T23:02:26.135Z,66.20
2019-06-10T23:05:01.376Z,66.40
2019-06-10T23:07:27.792Z,66.40
2019-06-10T23:09:56.335Z,66.70
2019-06-10T23:12:24.952Z,67.20
2019-06-10T23:14:53.612Z,67.30
2019-06-10T23:17:22.133Z,67.30
2019-06-10T23:19:51.590Z,67.60
2019-06-10T23:22:19.314Z,67.40
2019-06-10T23:24:46.939Z,67.20
2019-06-10T23:27:14.550Z,67.30
2019-06-10T23:29:42.749Z,68.20
2019-06-10T23:32:12.814Z,67.80
2019-06-10T23:34:42.122Z,68.00
2019-06-10T23:37:09.598Z,67.70
2019-06-10T23:39:37.214Z,67.40
2019-06-10T23:42:04.848Z,67.00
2019-06-10T23:44:33.026Z,66.80
2019-06-10T23:47:03.651Z,66.60
2019-06-10T23:49:32.270Z,66.30
2019-06-10T23:52:00.933Z,66.10
2019-06-10T23:54:29.393Z,65.60
2019-06-10T23:56:57.017Z,65.40
2019-06-10T23:59:24.638Z,65.40
